Time;durP1;ratioP1;P1;durP2;ratioP2;P2;SDS_P1;SDS_P2;PMS_P1;PMS_P2;Temp;Humidity;BMP_temperature;BMP_pressure;BME280_temperature;BME280_humidity;BME280_pressure;Samples;Min_cycle;Max_cycle;Signal;HPM_P1;HPM_P2
2022/05/04 00:01:02;;;;;;;6.05;3.47;;;15.10;79.80;;;;;;5015373;28;20390;-80
2022/05/04 00:03:28;;;;;;;4.72;2.85;;;15.00;79.60;;;;;;5034674;28;20479;-78
2022/05/04 00:05:53;;;;;;;5.97;3.30;;;15.10;79.50;;;;;;5016675;28;20084;-79
2022/05/04 00:08:19;;;;;;;5.80;3.38;;;15.10;79.40;;;;;;5016776;28;20093;-79
2022/05/04 00:10:45;;;;;;;5.32;3.30;;;15.10;79.40;;;;;;5016002;28;20041;-78
2022/05/04 00:13:12;;;;;;;6.15;3.30;;;15.00;79.40;;;;;;5016213;28;20022;-79
2022/05/04 00:15:37;;;;;;;6.60;3.30;;;15.00;79.50;;;;;;5034093;28;20092;-80
2022/05/04 00:18:03;;;;;;;6.25;3.50;;;15.00;79.70;;;;;;5017711;28;20021;-80
2022/05/04 00:20:32;;;;;;;7.43;3.42;;;15.00;79.70;;;;;;5017784;28;20091;-80
2022/05/04 00:22:57;;;;;;;5.47;3.30;;;15.00;79.90;;;;;;5025250;28;20395;-77
2022/05/04 00:25:23;;;;;;;5.32;2.95;;;15.00;79.90;;;;;;5017441;28;20026;-78
2022/05/04 00:27:48;;;;;;;5.88;3.28;;;14.90;79.90;;;;;;5020699;28;20014;-78
2022/05/04 00:30:14;;;;;;;5.75;3.20;;;14.90;79.90;;;;;;5039454;28;20105;-77
2022/05/04 00:32:39;;;;;;;6.22;3.05;;;14.90;80.00;;;;;;5039760;28;20029;-78
2022/05/04 00:35:05;;;;;;;5.70;3.20;;;14.90;80.00;;;;;;5037151;28;20108;-77
2022/05/04 00:37:31;;;;;;;4.90;3.10;;;14.90;80.10;;;;;;5039860;28;20037;-78
2022/05/04 00:39:57;;;;;;;5.65;3.10;;;14.90;80.10;;;;;;5035388;28;20029;-78
2022/05/04 00:42:23;;;;;;;6.40;3.60;;;14.90;80.10;;;;;;5027460;28;20103;-78
2022/05/04 00:44:50;;;;;;;6.55;3.60;;;14.90;80.10;;;;;;5033605;28;20109;-78
2022/05/04 00:47:16;;;;;;;6.25;3.30;;;14.80;80.00;;;;;;5032377;28;20475;-78
2022/05/04 00:49:44;;;;;;;6.80;3.50;;;14.90;80.00;;;;;;5020490;28;20044;-78
2022/05/04 00:52:13;;;;;;;5.45;3.20;;;14.90;80.00;;;;;;5033104;28;20029;-78
2022/05/04 00:54:42;;;;;;;5.82;3.42;;;14.90;80.00;;;;;;5038621;28;20078;-79
2022/05/04 00:57:08;;;;;;;6.03;3.30;;;14.90;79.90;;;;;;5039586;28;20036;-78
2022/05/04 00:59:37;;;;;;;6.70;3.72;;;14.90;80.00;;;;;;5021072;28;20395;-78
2022/05/04 01:02:04;;;;;;;5.97;3.30;;;14.90;80.10;;;;;;5020659;28;20037;-78
2022/05/04 01:04:29;;;;;;;5.85;3.55;;;14.90;80.00;;;;;;5038887;28;20040;-78
2022/05/04 01:06:55;;;;;;;7.07;3.40;;;14.90;80.10;;;;;;5029619;28;20120;-78
2022/05/04 01:09:20;;;;;;;5.45;3.25;;;14.90;80.10;;;;;;5036776;28;20479;-78
2022/05/04 01:11:47;;;;;;;6.70;3.67;;;14.90;80.00;;;;;;5039071;28;20021;-78
2022/05/04 01:14:14;;;;;;;6.72;3.63;;;14.90;79.90;;;;;;5033179;28;20018;-79
2022/05/04 01:16:42;;;;;;;5.55;3.00;;;15.00;79.90;;;;;;5020026;28;20442;-78
2022/05/04 01:19:09;;;;;;;5.50;3.05;;;15.00;79.70;;;;;;5020702;28;20112;-78
2022/05/04 01:21:35;;;;;;;5.90;3.15;;;15.00;79.60;;;;;;5022156;28;20488;-79
2022/05/04 01:24:00;;;;;;;5.63;3.13;;;15.00;79.90;;;;;;5036304;28;20082;-78
2022/05/04 01:26:26;;;;;;;5.38;2.85;;;15.00;79.40;;;;;;5035982;28;20116;-78
2022/05/04 01:28:52;;;;;;;4.63;2.78;;;15.00;79.50;;;;;;5038219;28;20147;-78
2022/05/04 01:31:18;;;;;;;5.10;3.05;;;15.00;79.70;;;;;;5038671;28;20025;-78
2022/05/04 01:33:43;;;;;;;6.00;3.33;;;15.00;79.80;;;;;;5032227;28;20434;-78
2022/05/04 01:36:09;;;;;;;6.15;3.55;;;15.00;79.80;;;;;;5019983;28;20030;-78
2022/05/04 01:38:35;;;;;;;6.93;3.42;;;14.90;79.90;;;;;;5018759;28;20041;-77
2022/05/04 01:41:02;;;;;;;6.13;3.42;;;14.90;79.90;;;;;;5038407;28;20083;-78
2022/05/04 01:43:27;;;;;;;5.32;3.10;;;14.90;80.00;;;;;;5038110;28;20036;-78
2022/05/04 01:45:53;;;;;;;5.97;3.47;;;14.90;80.00;;;;;;5035886;28;20025;-77
2022/05/04 01:48:20;;;;;;;6.22;3.50;;;14.90;80.00;;;;;;5037770;28;20032;-78
2022/05/04 01:50:45;;;;;;;5.45;2.85;;;14.90;80.10;;;;;;5036318;28;20022;-78
2022/05/04 01:53:11;;;;;;;5.80;3.08;;;14.90;80.20;;;;;;5036637;28;20022;-78
2022/05/04 01:55:36;;;;;;;5.53;3.20;;;14.90;80.20;;;;;;5035946;28;20037;-78
2022/05/04 01:58:05;;;;;;;6.00;3.08;;;14.90;80.30;;;;;;5037910;28;20060;-78
2022/05/04 02:00:31;;;;;;;5.80;3.20;;;14.90;80.20;;;;;;5037830;28;20036;-78
2022/05/04 02:02:58;;;;;;;6.47;3.30;;;14.80;80.20;;;;;;5034287;28;20026;-78
2022/05/04 02:05:24;;;;;;;7.45;3.10;;;14.80;80.10;;;;;;5035669;28;20026;-78
2022/05/04 02:07:50;;;;;;;6.50;3.42;;;14.80;80.10;;;;;;5020993;28;20278;-78
2022/05/04 02:10:16;;;;;;;5.35;2.90;;;14.90;80.10;;;;;;5036340;28;20026;-78
2022/05/04 02:12:42;;;;;;;6.18;3.38;;;14.90;80.20;;;;;;5035544;28;20025;-78
2022/05/04 02:15:09;;;;;;;5.50;3.20;;;14.80;80.00;;;;;;5034851;28;20513;-78
2022/05/04 02:17:35;;;;;;;5.13;3.00;;;14.90;80.20;;;;;;5034445;28;20060;-79
2022/05/04 02:20:01;;;;;;;6.25;3.10;;;14.80;80.10;;;;;;5035535;28;20104;-79
2022/05/04 02:22:27;;;;;;;5.25;3.03;;;14.80;80.10;;;;;;5036690;28;20533;-78
2022/05/04 02:24:52;;;;;;;5.90;3.28;;;14.90;80.30;;;;;;5018858;28;20021;-77
2022/05/04 02:27:18;;;;;;;5.85;3.50;;;14.80;80.10;;;;;;5037337;28;20031;-78
2022/05/04 02:29:43;;;;;;;5.05;2.95;;;14.90;80.00;;;;;;5019638;28;20164;-78
2022/05/04 02:32:09;;;;;;;5.55;3.10;;;14.90;79.90;;;;;;5019466;28;20047;-78
2022/05/04 02:37:54;;;;;;;4.97;2.58;;;14.90;79.80;;;;;;5023278;28;20030;-79
2022/05/04 02:40:05;;;;;;;6.28;3.30;;;15.00;79.60;;;;;;5037908;28;20421;-77
2022/05/04 02:42:31;;;;;;;6.10;2.95;;;15.00;79.50;;;;;;5034532;28;20384;-77
2022/05/04 02:44:56;;;;;;;5.80;3.22;;;15.00;79.60;;;;;;5032258;28;20025;-78
2022/05/04 02:47:22;;;;;;;5.18;2.90;;;15.00;79.70;;;;;;5035242;28;20037;-78
2022/05/04 02:49:47;;;;;;;5.78;3.00;;;15.00;79.80;;;;;;5019284;28;20215;-78
2022/05/04 02:52:13;;;;;;;6.13;3.22;;;15.00;79.80;;;;;;5018854;28;20053;-78
2022/05/04 02:54:38;;;;;;;5.70;2.92;;;14.90;79.90;;;;;;5036211;28;20105;-78
2022/05/04 02:57:04;;;;;;;5.68;3.22;;;14.90;80.00;;;;;;5021163;28;20012;-78
2022/05/04 02:59:30;;;;;;;5.80;3.35;;;14.90;80.10;;;;;;5054980;28;20025;-78
2022/05/04 03:04:40;;;;;;;6.28;3.45;;;14.90;80.20;;;;;;5056904;28;20036;-77
2022/05/04 03:07:05;;;;;;;6.40;3.50;;;14.80;80.10;;;;;;5055151;28;20033;-78
2022/05/04 03:09:31;;;;;;;5.72;3.28;;;14.80;80.10;;;;;;5056222;28;20028;-78
2022/05/04 03:11:56;;;;;;;5.18;2.92;;;14.80;80.20;;;;;;5027452;28;20461;-78
2022/05/04 03:14:23;;;;;;;5.90;3.22;;;14.80;80.20;;;;;;5036292;28;20026;-77
2022/05/04 03:16:51;;;;;;;5.65;3.38;;;14.80;80.20;;;;;;5017742;28;20021;-78
2022/05/04 03:19:17;;;;;;;6.15;3.40;;;14.80;80.20;;;;;;5034605;28;20037;-77
2022/05/04 03:21:43;;;;;;;5.47;3.25;;;14.80;80.20;;;;;;5017745;28;20029;-77
2022/05/04 03:24:09;;;;;;;6.20;2.95;;;14.80;80.20;;;;;;5035902;28;20040;-78
2022/05/04 03:26:35;;;;;;;5.18;2.92;;;14.80;80.30;;;;;;5035193;28;20037;-78
2022/05/04 03:29:01;;;;;;;5.70;2.88;;;14.80;80.30;;;;;;5017773;28;20022;-78
2022/05/04 03:31:27;;;;;;;4.95;2.92;;;14.80;80.20;;;;;;5035865;28;20098;-78
2022/05/04 03:33:52;;;;;;;5.20;2.60;;;14.80;80.20;;;;;;5034568;28;20021;-78
2022/05/04 03:36:18;;;;;;;5.78;2.90;;;14.80;80.20;;;;;;5033501;28;20045;-79
2022/05/04 03:38:44;;;;;;;5.90;2.92;;;14.80;80.10;;;;;;5032270;28;20034;-78
2022/05/04 03:41:09;;;;;;;6.07;3.47;;;14.80;80.20;;;;;;5018331;28;20108;-78
2022/05/04 03:43:35;;;;;;;6.00;3.00;;;14.80;80.10;;;;;;5035255;28;20104;-77
2022/05/04 03:46:25;;;;;;;5.57;3.00;;;14.80;80.20;;;;;;5019126;28;20025;-78
2022/05/04 03:48:53;;;;;;;4.85;2.80;;;14.80;80.00;;;;;;5034128;28;20030;-78
2022/05/04 03:51:20;;;;;;;5.18;2.85;;;14.90;80.00;;;;;;5031785;28;20021;-77
2022/05/04 03:53:46;;;;;;;6.93;2.90;;;14.90;79.90;;;;;;5018135;28;20028;-78
2022/05/04 03:56:12;;;;;;;5.13;2.80;;;14.90;79.80;;;;;;5017409;28;20025;-78
2022/05/04 03:58:38;;;;;;;5.68;2.80;;;15.00;79.60;;;;;;5017062;28;20030;-78
2022/05/04 04:01:04;;;;;;;4.95;2.72;;;15.00;79.60;;;;;;5034779;28;20026;-78
2022/05/04 04:03:31;;;;;;;6.30;3.10;;;14.90;79.60;;;;;;5021165;28;20032;-77
2022/05/04 04:05:56;;;;;;;5.03;3.05;;;14.90;79.70;;;;;;5038228;28;20029;-78
2022/05/04 04:08:22;;;;;;;5.40;3.15;;;14.90;79.80;;;;;;5038158;28;20025;-77
2022/05/04 04:10:48;;;;;;;5.15;3.00;;;14.90;79.90;;;;;;5020718;28;20371;-78
2022/05/04 04:13:15;;;;;;;5.18;3.03;;;14.90;80.00;;;;;;5020895;28;20536;-78
2022/05/04 04:15:40;;;;;;;5.60;2.83;;;14.80;80.00;;;;;;5020541;28;20104;-78
2022/05/04 04:18:06;;;;;;;5.97;3.22;;;14.80;80.10;;;;;;5038413;28;20060;-78
2022/05/04 04:23:15;;;;;;;5.40;3.17;;;14.80;80.20;;;;;;5039678;28;20044;-79
2022/05/04 04:25:41;;;;;;;5.15;3.20;;;14.80;80.10;;;;;;5021563;28;20487;-78
2022/05/04 04:28:06;;;;;;;5.40;2.80;;;14.80;80.20;;;;;;5021931;28;20014;-79
2022/05/04 04:30:32;;;;;;;6.68;2.95;;;14.80;80.20;;;;;;5039303;28;20136;-79
2022/05/04 04:32:58;;;;;;;5.57;3.25;;;14.80;80.20;;;;;;5037670;28;20026;-79
2022/05/04 04:35:23;;;;;;;4.90;2.97;;;14.80;80.20;;;;;;5038129;28;20056;-78
2022/05/04 04:37:49;;;;;;;5.53;3.00;;;14.80;80.30;;;;;;5039679;28;20471;-79
2022/05/04 04:40:14;;;;;;;5.45;2.90;;;14.80;80.30;;;;;;5022090;28;20022;-79
2022/05/04 04:42:40;;;;;;;5.50;2.97;;;14.80;80.20;;;;;;5020533;28;20056;-79
2022/05/04 04:45:06;;;;;;;5.70;2.90;;;14.80;80.20;;;;;;5017199;28;20056;-78
2022/05/04 04:47:32;;;;;;;6.10;2.88;;;14.80;80.20;;;;;;5029293;28;20431;-80
2022/05/04 04:49:57;;;;;;;4.50;2.90;;;14.80;80.20;;;;;;5021925;28;20044;-79
2022/05/04 04:52:23;;;;;;;5.63;3.35;;;14.80;80.10;;;;;;5032417;28;20068;-79
2022/05/04 04:54:49;;;;;;;5.80;2.80;;;14.80;80.20;;;;;;5018519;28;20025;-78
2022/05/04 04:57:15;;;;;;;4.82;2.72;;;14.80;80.10;;;;;;5015087;28;20021;-79
2022/05/04 04:59:40;;;;;;;5.20;3.00;;;14.80;80.10;;;;;;5019071;28;20048;-80
2022/05/04 05:02:06;;;;;;;5.80;3.15;;;14.80;80.20;;;;;;5036964;28;20029;-80
2022/05/04 05:04:31;;;;;;;5.20;3.03;;;14.80;80.10;;;;;;5035632;28;20045;-77
2022/05/04 05:17:36;;;;;;;4.78;2.83;;;15.10;79.70;;;;;;5054449;28;20134;-79
2022/05/04 05:21:20;;;;;;;5.55;3.00;;;15.00;79.50;;;;;;5035925;28;20096;-79
2022/05/04 05:23:44;;;;;;;4.53;2.83;;;14.90;79.50;;;;;;5028690;28;20033;-77
2022/05/04 05:26:10;;;;;;;;;;;14.90;79.40;;;;;;5035505;28;20033;-78
2022/05/04 05:28:35;;;;;;;4.90;2.70;;;15.00;79.50;;;;;;5036141;28;20382;-78
2022/05/04 05:31:10;;;;;;;5.25;2.97;;;14.90;79.70;;;;;;5041311;28;20037;-77
2022/05/04 05:34:41;;;;;;;;;;;;;;;;;;;;;
2022/05/04 05:37:28;;;;;;;6.38;3.20;;;14.90;79.40;;;;;;5053766;28;20025;-77
2022/05/04 05:40:17;;;;;;;6.35;3.22;;;14.80;79.70;;;;;;5053752;28;20049;-78
2022/05/04 05:42:43;;;;;;;7.90;3.47;;;14.70;79.40;;;;;;5035689;28;20056;-76
2022/05/04 05:45:09;;;;;;;8.35;3.10;;;14.80;79.30;;;;;;5034604;28;20106;-78
2022/05/04 05:47:34;;;;;;;8.02;3.28;;;14.80;79.30;;;;;;5051135;28;20033;-76
2022/05/04 05:50:00;;;;;;;14.07;3.45;;;14.80;79.30;;;;;;5032975;28;20029;-78
2022/05/04 05:52:26;;;;;;;7.80;3.05;;;14.70;79.30;;;;;;5033285;28;20025;-77
2022/05/04 05:54:51;;;;;;;7.57;3.60;;;14.80;79.20;;;;;;5050933;28;20028;-78
2022/05/04 05:57:17;;;;;;;8.88;3.17;;;14.80;79.20;;;;;;5033117;28;20017;-78
2022/05/04 05:59:42;;;;;;;8.23;2.88;;;14.90;79.20;;;;;;5033630;28;20120;-78
2022/05/04 06:02:08;;;;;;;6.82;3.20;;;14.80;79.20;;;;;;5033087;28;20033;-78
2022/05/04 06:04:33;;;;;;;6.68;3.30;;;14.80;79.20;;;;;;5049449;28;20079;-77
2022/05/04 06:06:59;;;;;;;10.70;3.67;;;14.90;79.20;;;;;;5050881;28;20038;-77
2022/05/04 06:09:24;;;;;;;7.07;2.97;;;14.80;79.10;;;;;;5033991;28;20032;-78
2022/05/04 06:11:52;;;;;;;7.03;3.30;;;14.80;79.10;;;;;;5033087;28;20021;-78
2022/05/04 06:14:18;;;;;;;6.93;3.20;;;14.80;79.10;;;;;;5051328;28;20498;-78
2022/05/04 06:16:43;;;;;;;6.95;3.20;;;14.90;79.10;;;;;;5032391;28;20035;-76
2022/05/04 06:19:09;;;;;;;8.80;3.22;;;14.90;79.00;;;;;;5033027;28;20030;-78
2022/05/04 06:21:34;;;;;;;6.50;3.08;;;14.90;79.00;;;;;;5032449;28;20036;-78
2022/05/04 06:24:00;;;;;;;10.25;3.38;;;14.90;78.90;;;;;;5032702;28;20534;-78
2022/05/04 06:26:26;;;;;;;6.45;3.25;;;14.90;78.70;;;;;;5032392;28;20029;-79
2022/05/04 06:28:51;;;;;;;8.32;3.33;;;15.00;78.70;;;;;;5051013;28;20592;-77
2022/05/04 06:34:06;;;;;;;6.05;3.08;;;15.00;78.40;;;;;;5050849;28;20036;-78
2022/05/04 06:36:33;;;;;;;5.57;3.00;;;15.10;78.40;;;;;;5032267;28;20055;-78
2022/05/04 06:38:58;;;;;;;8.15;3.10;;;15.10;78.30;;;;;;5033564;28;20028;-78
2022/05/04 06:41:24;;;;;;;7.60;3.53;;;15.20;78.30;;;;;;5051095;28;20108;-77
2022/05/04 06:43:49;;;;;;;7.47;3.17;;;15.10;78.30;;;;;;5032977;28;20036;-77
2022/05/04 06:46:15;;;;;;;8.10;3.40;;;15.10;78.30;;;;;;5031592;28;21003;-78
2022/05/04 06:48:41;;;;;;;6.75;3.03;;;15.10;78.40;;;;;;5032256;28;20021;-77
2022/05/04 06:51:07;;;;;;;6.53;3.20;;;15.10;78.40;;;;;;5051507;28;20048;-79
2022/05/04 06:53:33;;;;;;;7.03;3.00;;;15.10;78.10;;;;;;5019648;28;20483;-76
2022/05/04 06:55:59;;;;;;;7.10;3.08;;;15.10;77.90;;;;;;5030811;28;20641;-77
2022/05/04 06:58:24;;;;;;;6.32;3.30;;;15.10;77.90;;;;;;5032432;28;20032;-78
2022/05/04 07:00:50;;;;;;;6.28;3.17;;;15.20;77.90;;;;;;5022583;28;20414;-77
2022/05/04 07:03:16;;;;;;;6.25;3.00;;;15.10;78.00;;;;;;5012513;28;20646;-78
2022/05/04 07:05:41;;;;;;;5.68;2.88;;;15.10;78.10;;;;;;5029789;28;20367;-78
2022/05/04 07:08:07;;;;;;;7.82;3.25;;;15.10;78.10;;;;;;5011841;28;20045;-77
2022/05/04 07:10:33;;;;;;;6.78;2.92;;;15.10;78.00;;;;;;5012354;28;20087;-78
2022/05/04 07:12:59;;;;;;;8.32;3.45;;;15.20;78.10;;;;;;5022607;28;20039;-78
2022/05/04 07:15:25;;;;;;;6.95;3.17;;;15.10;78.10;;;;;;5032103;28;20020;-78
2022/05/04 07:17:50;;;;;;;5.70;2.95;;;15.10;78.10;;;;;;5049656;28;20071;-78
2022/05/04 07:20:16;;;;;;;6.85;3.13;;;15.10;78.10;;;;;;5031572;28;20071;-77
2022/05/04 07:22:42;;;;;;;5.25;3.00;;;15.10;78.10;;;;;;5049553;28;20044;-77
2022/05/04 07:25:07;;;;;;;6.72;3.30;;;15.10;78.10;;;;;;5031115;28;20021;-77
2022/05/04 07:27:33;;;;;;;6.28;3.08;;;15.20;78.10;;;;;;5030913;28;20071;-78
2022/05/04 07:29:59;;;;;;;5.70;3.05;;;15.20;78.00;;;;;;5031752;28;20108;-78
2022/05/04 07:32:24;;;;;;;6.40;3.28;;;15.20;78.00;;;;;;5031955;28;20021;-78
2022/05/04 07:34:50;;;;;;;6.03;3.00;;;15.20;77.90;;;;;;5031165;28;20032;-78
2022/05/04 07:37:15;;;;;;;7.05;3.17;;;15.20;77.80;;;;;;5030804;28;20409;-78
2022/05/04 07:42:25;;;;;;;4.75;2.72;;;15.30;77.70;;;;;;5049501;28;20067;-78
2022/05/04 07:44:57;;;;;;;5.80;2.97;;;15.30;77.60;;;;;;5032023;28;20032;-78
2022/05/04 07:47:23;;;;;;;6.30;3.15;;;15.30;77.40;;;;;;5030787;28;20021;-77
2022/05/04 07:49:48;;;;;;;5.13;2.97;;;15.40;77.30;;;;;;5032541;28;20082;-78
2022/05/04 07:52:14;;;;;;;5.78;2.90;;;15.40;77.20;;;;;;5051764;28;20025;-79
2022/05/04 07:54:39;;;;;;;5.75;2.90;;;15.40;77.10;;;;;;5026896;28;20075;-78
2022/05/04 07:57:05;;;;;;;6.85;2.90;;;15.40;77.00;;;;;;5029200;28;20056;-77
2022/05/04 07:59:31;;;;;;;5.72;2.80;;;15.50;76.90;;;;;;5040146;28;20049;-79
2022/05/04 08:04:40;;;;;;;6.72;3.10;;;15.50;76.80;;;;;;5051097;28;20253;-77
2022/05/04 08:07:05;;;;;;;7.10;3.67;;;15.40;76.90;;;;;;5050748;28;20564;-78
2022/05/04 08:09:36;;;;;;;5.68;2.88;;;15.40;76.90;;;;;;5051943;28;20021;-78
2022/05/04 08:12:02;;;;;;;5.03;2.90;;;15.40;76.90;;;;;;5049659;28;20017;-77
2022/05/04 08:14:28;;;;;;;5.53;3.08;;;15.40;76.90;;;;;;5031576;28;20113;-77
2022/05/04 08:16:53;;;;;;;7.10;3.10;;;15.40;77.10;;;;;;5031652;28;20738;-77
2022/05/04 08:19:19;;;;;;;5.60;2.95;;;15.40;77.20;;;;;;5032895;28;20465;-78
2022/05/04 08:21:44;;;;;;;5.30;3.03;;;15.40;77.40;;;;;;5032259;28;20036;-78
2022/05/04 08:24:10;;;;;;;6.60;3.13;;;15.30;77.30;;;;;;5032504;28;20033;-78
2022/05/04 08:26:35;;;;;;;6.13;3.15;;;15.30;77.50;;;;;;5031394;28;20040;-77
2022/05/04 08:29:01;;;;;;;5.00;2.83;;;15.50;77.70;;;;;;5050423;28;20052;-77
2022/05/04 08:31:28;;;;;;;5.70;3.20;;;15.30;77.50;;;;;;5031950;28;20044;-77
2022/05/04 08:33:54;;;;;;;5.45;2.97;;;15.40;77.60;;;;;;5031984;28;20052;-78
2022/05/04 08:36:19;;;;;;;5.63;2.83;;;15.40;77.40;;;;;;5031397;28;20029;-77
2022/05/04 08:38:45;;;;;;;5.45;2.80;;;15.40;77.30;;;;;;5032492;28;20032;-78
2022/05/04 08:41:10;;;;;;;4.85;2.80;;;15.40;77.20;;;;;;5032437;28;20667;-78
2022/05/04 08:43:39;;;;;;;6.57;3.30;;;15.40;77.00;;;;;;5031924;28;20115;-77
2022/05/04 08:46:05;;;;;;;5.40;2.80;;;15.50;76.90;;;;;;5031782;28;20545;-78
2022/05/04 08:48:35;;;;;;;6.13;3.30;;;15.50;76.80;;;;;;5034457;28;20037;-78
2022/05/04 08:51:03;;;;;;;6.65;3.20;;;15.50;76.70;;;;;;5053599;28;20031;-77
2022/05/04 08:53:29;;;;;;;5.28;2.90;;;15.50;76.70;;;;;;5035377;28;20021;-78
2022/05/04 08:55:55;;;;;;;6.00;2.83;;;15.60;76.70;;;;;;5035315;28;20028;-77
2022/05/04 08:58:21;;;;;;;6.07;3.05;;;15.60;76.60;;;;;;5035849;28;20411;-80
2022/05/04 09:00:46;;;;;;;6.70;3.13;;;15.60;76.50;;;;;;5047548;28;20056;-77
2022/05/04 09:03:12;;;;;;;7.25;3.40;;;15.60;76.40;;;;;;5033708;28;20043;-79
2022/05/04 09:05:40;;;;;;;5.97;2.70;;;15.60;76.20;;;;;;5034621;28;20039;-78
2022/05/04 09:08:06;;;;;;;6.28;3.40;;;15.70;76.10;;;;;;5055209;28;20024;-78
2022/05/04 09:10:40;;;;;;;5.28;2.78;;;15.70;75.90;;;;;;5034445;28;20032;-85
2022/05/04 09:13:07;;;;;;;5.80;3.05;;;15.80;75.70;;;;;;5032806;28;20029;-78
2022/05/04 09:15:34;;;;;;;6.85;3.17;;;15.80;75.60;;;;;;5032260;28;20082;-77
2022/05/04 09:18:06;;;;;;;6.68;3.00;;;15.90;75.60;;;;;;5033398;28;20536;-78
2022/05/04 09:20:48;;;;;;;6.18;3.35;;;15.90;75.40;;;;;;5032866;28;20028;-77
2022/05/04 09:23:22;;;;;;;4.97;2.60;;;15.90;75.30;;;;;;5051127;28;20029;-78
2022/05/04 09:25:49;;;;;;;6.88;2.90;;;15.90;75.30;;;;;;5050919;28;20083;-76
2022/05/04 09:28:15;;;;;;;7.78;3.10;;;15.90;75.30;;;;;;5050961;28;20020;-78
2022/05/04 09:30:46;;;;;;;5.68;2.92;;;15.90;75.40;;;;;;5033016;28;20032;-77
2022/05/04 09:33:15;;;;;;;6.63;3.23;;;15.90;75.50;;;;;;5049982;28;20539;-77
2022/05/04 09:35:41;;;;;;;6.60;3.08;;;15.90;75.60;;;;;;5032117;28;20264;-77
2022/05/04 09:46:46;;;;;;;6.15;3.00;;;15.90;75.50;;;;;;5049758;28;20032;-77
2022/05/04 09:49:18;;;;;;;6.43;3.25;;;15.90;75.50;;;;;;5050574;28;20064;-77
2022/05/04 09:51:51;;;;;;;8.02;3.08;;;16.00;75.50;;;;;;5032459;28;20499;-77
2022/05/04 09:54:27;;;;;;;5.32;2.88;;;16.00;75.40;;;;;;5050146;28;20760;-77
2022/05/04 09:56:55;;;;;;;5.57;3.00;;;15.90;75.40;;;;;;5049911;28;20500;-76
2022/05/04 09:59:23;;;;;;;6.82;3.13;;;16.00;75.40;;;;;;5031622;28;20059;-78
2022/05/04 10:01:51;;;;;;;5.88;2.97;;;16.00;75.40;;;;;;5032487;28;20517;-77
2022/05/04 10:04:17;;;;;;;6.32;3.58;;;16.00;75.40;;;;;;5050607;28;20554;-77
2022/05/04 10:06:43;;;;;;;6.68;3.20;;;16.00;75.30;;;;;;5049684;28;20025;-77
2022/05/04 10:09:09;;;;;;;8.02;3.60;;;16.00;75.30;;;;;;5031814;28;20119;-78
2022/05/04 10:11:35;;;;;;;6.25;3.30;;;16.00;75.30;;;;;;5031588;28;20108;-78
2022/05/04 10:14:15;;;;;;;5.78;3.03;;;16.00;75.30;;;;;;5032046;28;20063;-77
2022/05/04 10:17:12;;;;;;;6.20;3.03;;;16.00;75.20;;;;;;5049236;28;20044;-78
2022/05/04 10:19:47;;;;;;;7.03;2.90;;;16.00;75.20;;;;;;5031819;28;20053;-77
2022/05/04 10:22:17;;;;;;;6.22;3.50;;;16.00;75.30;;;;;;5031863;28;20056;-76
2022/05/04 10:24:45;;;;;;;6.65;2.90;;;16.10;75.30;;;;;;5031970;28;20025;-77
2022/05/04 10:27:19;;;;;;;6.47;3.13;;;16.10;75.10;;;;;;5031695;28;20571;-79
2022/05/04 10:32:46;;;;;;;5.47;3.08;;;16.10;75.00;;;;;;5049697;28;20068;-77
2022/05/04 10:35:21;;;;;;;6.20;3.22;;;16.20;75.00;;;;;;5031306;28;20029;-77
2022/05/04 10:37:57;;;;;;;5.68;2.97;;;16.20;74.90;;;;;;5030983;28;20701;-77
2022/05/04 10:40:26;;;;;;;7.22;3.40;;;16.20;74.90;;;;;;5049143;28;20483;-76
2022/05/04 10:42:57;;;;;;;5.60;2.80;;;16.20;74.70;;;;;;5031263;28;20504;-77
2022/05/04 10:45:34;;;;;;;5.82;2.80;;;16.20;74.70;;;;;;5030898;28;20132;-78
2022/05/04 10:48:18;;;;;;;6.72;3.10;;;16.10;74.80;;;;;;5049631;28;20086;-77
2022/05/04 10:50:52;;;;;;;5.43;2.78;;;16.10;75.00;;;;;;5031164;28;20029;-78
2022/05/04 10:53:25;;;;;;;5.57;3.13;;;16.10;75.70;;;;;;5031643;28;20029;-78
2022/05/04 10:55:55;;;;;;;6.40;2.67;;;16.10;75.30;;;;;;5030699;28;20312;-77
2022/05/04 10:58:44;;;;;;;5.82;2.97;;;16.10;75.30;;;;;;5031653;28;20065;-78
2022/05/04 11:01:16;;;;;;;6.38;3.03;;;16.10;75.40;;;;;;5048453;28;20036;-78
2022/05/04 11:03:49;;;;;;;;;;;16.10;75.40;;;;;;5031427;28;20730;-77
2022/05/04 11:06:26;;;;;;;6.07;2.80;;;16.10;75.40;;;;;;5030695;28;19915;-77
2022/05/04 11:08:52;;;;;;;6.00;2.92;;;16.10;75.50;;;;;;5048466;28;20075;-78
2022/05/04 11:11:20;;;;;;;6.30;3.10;;;16.10;75.50;;;;;;5047975;28;20478;-78
2022/05/04 11:13:46;;;;;;;6.10;2.97;;;16.00;75.40;;;;;;5031218;28;20040;-77
2022/05/04 11:16:12;;;;;;;5.72;3.05;;;16.00;75.50;;;;;;5047895;28;20029;-76
2022/05/04 11:18:38;;;;;;;6.25;3.00;;;16.10;76.00;;;;;;5048767;28;20095;-77
2022/05/04 11:21:13;;;;;;;6.00;3.17;;;16.10;75.50;;;;;;5030461;28;20486;-77
2022/05/04 11:23:39;;;;;;;5.97;3.10;;;16.10;75.50;;;;;;5030984;28;20029;-78
2022/05/04 11:26:05;;;;;;;7.63;3.08;;;16.10;75.50;;;;;;5029746;28;20033;-77
2022/05/04 11:28:30;;;;;;;6.03;2.90;;;16.10;75.50;;;;;;5030873;28;20071;-77
2022/05/04 11:30:56;;;;;;;6.75;3.20;;;16.10;75.60;;;;;;5030402;28;20060;-77
2022/05/04 11:33:21;;;;;;;6.38;2.90;;;16.10;75.50;;;;;;5047994;28;20471;-77
2022/05/04 11:35:54;;;;;;;6.32;3.13;;;16.10;75.60;;;;;;5030159;28;20044;-77
2022/05/04 11:38:23;;;;;;;5.63;3.17;;;16.00;75.60;;;;;;5029895;28;20036;-77
2022/05/04 11:40:50;;;;;;;5.55;2.83;;;16.00;75.70;;;;;;5030531;28;20029;-78
2022/05/04 11:43:34;;;;;;;4.95;2.38;;;16.00;75.70;;;;;;5030469;28;20394;-77
2022/05/04 11:46:09;;;;;;;5.45;3.05;;;16.10;75.70;;;;;;5030198;28;20112;-77
2022/05/04 11:48:45;;;;;;;5.30;3.00;;;16.10;75.40;;;;;;5030201;28;20026;-77
2022/05/04 11:51:12;;;;;;;5.97;2.88;;;16.10;75.30;;;;;;5030729;28;20482;-77
2022/05/04 11:53:38;;;;;;;6.63;3.13;;;16.20;75.30;;;;;;5048502;28;20052;-78
2022/05/04 11:56:06;;;;;;;5.43;3.30;;;16.20;75.20;;;;;;5030468;28;20520;-77
2022/05/04 11:58:33;;;;;;;5.13;2.83;;;16.20;75.20;;;;;;5030675;28;20131;-77
2022/05/04 12:00:59;;;;;;;6.05;3.05;;;16.20;75.20;;;;;;5030380;28;20025;-78
2022/05/04 12:03:27;;;;;;;6.22;3.38;;;16.20;75.10;;;;;;5048025;28;20040;-78
2022/05/04 12:05:54;;;;;;;5.30;2.78;;;16.10;75.10;;;;;;5029765;28;20496;-78
2022/05/04 12:08:21;;;;;;;5.70;2.92;;;16.10;75.30;;;;;;5027794;28;20033;-77
2022/05/04 12:10:48;;;;;;;5.07;2.85;;;16.10;75.60;;;;;;5029929;28;20083;-77
2022/05/04 12:13:17;;;;;;;5.68;3.08;;;16.00;75.80;;;;;;5029826;28;20033;-78
2022/05/04 12:15:43;;;;;;;5.03;2.88;;;16.00;75.90;;;;;;5029106;28;20547;-77
2022/05/04 12:18:11;;;;;;;6.13;3.13;;;16.00;76.10;;;;;;5048038;28;20017;-78
2022/05/04 12:20:37;;;;;;;5.07;2.70;;;15.90;76.10;;;;;;5030017;28;20478;-78
2022/05/04 12:23:03;;;;;;;5.60;2.83;;;15.90;76.20;;;;;;5049318;28;20036;-78
2022/05/04 12:25:30;;;;;;;5.53;2.75;;;15.90;76.30;;;;;;5033165;28;20027;-78
2022/05/04 12:27:56;;;;;;;5.97;3.00;;;15.90;76.30;;;;;;5051414;28;20037;-78
2022/05/04 12:33:09;;;;;;;4.82;2.70;;;15.90;76.40;;;;;;5051651;28;20028;-78
2022/05/04 12:35:42;;;;;;;5.38;3.08;;;15.90;76.40;;;;;;5033041;28;20032;-78
2022/05/04 12:38:09;;;;;;;4.97;2.97;;;15.90;76.30;;;;;;5032704;28;20036;-79
2022/05/04 12:40:35;;;;;;;5.47;3.10;;;15.80;76.40;;;;;;5033788;28;20068;-77
2022/05/04 12:43:03;;;;;;;5.30;3.10;;;15.90;76.40;;;;;;5051663;28;20025;-78
2022/05/04 12:45:29;;;;;;;5.70;2.80;;;15.90;76.50;;;;;;5033575;28;20028;-77
2022/05/04 12:47:56;;;;;;;5.57;3.17;;;15.90;76.60;;;;;;5033528;28;20029;-77
2022/05/04 12:50:23;;;;;;;6.35;3.08;;;15.80;76.50;;;;;;5051380;28;20486;-77
2022/05/04 12:52:50;;;;;;;5.88;2.97;;;16.00;76.70;;;;;;5051338;28;20029;-77
2022/05/04 12:55:16;;;;;;;5.70;3.13;;;15.90;76.60;;;;;;5033103;28;20029;-77
2022/05/04 12:57:42;;;;;;;5.38;3.00;;;15.90;76.60;;;;;;5034031;28;20039;-78
2022/05/04 13:00:12;;;;;;;5.80;3.08;;;15.90;76.70;;;;;;5033315;28;20963;-77
2022/05/04 13:02:38;;;;;;;5.78;2.90;;;15.90;76.60;;;;;;5033552;28;20197;-78
2022/05/04 13:05:05;;;;;;;4.57;2.65;;;15.90;76.40;;;;;;5032894;28;20029;-77
2022/05/04 13:07:30;;;;;;;6.60;3.13;;;15.90;76.30;;;;;;5032052;28;20032;-77
2022/05/04 13:09:56;;;;;;;5.75;2.95;;;16.00;76.20;;;;;;5033534;28;20036;-78
2022/05/04 13:12:22;;;;;;;6.38;3.15;;;16.00;76.10;;;;;;5033289;28;20530;-78
2022/05/04 13:14:47;;;;;;;5.38;3.05;;;16.00;76.00;;;;;;5032952;28;20123;-78
2022/05/04 13:17:13;;;;;;;5.50;2.95;;;16.00;75.90;;;;;;5051451;28;20025;-78
2022/05/04 13:19:38;;;;;;;5.65;3.20;;;16.00;75.90;;;;;;5033324;28;20031;-77
2022/05/04 13:22:04;;;;;;;5.68;3.17;;;16.00;76.00;;;;;;5033510;28;20049;-78
2022/05/04 13:24:29;;;;;;;4.57;2.85;;;15.90;76.10;;;;;;5050479;28;20039;-77
2022/05/04 13:26:55;;;;;;;5.50;3.10;;;15.90;76.30;;;;;;5050489;28;20051;-77
2022/05/04 13:29:20;;;;;;;6.35;3.17;;;15.90;76.50;;;;;;5032717;28;20033;-77
2022/05/04 13:31:45;;;;;;;5.55;2.70;;;15.80;76.60;;;;;;5032945;28;20061;-78